Wind From: 11-12-2017 04:25 Until: 16:00 warning for: Wind Level: Orange info button

Power and phone distribution networks may be disrupted for relatively long periods., Roofs and chimneys can be damaged. , Tree branches may break. , Vehicles can be deported. , Traffic may be disrupted, particularly on secondary roads in forest areas. Limit your trips. , Limit your speed in highway driving, especially if you drive a vehicle or hitch sensitive to wind. , Do not go for walks in forests or along the coast., In town, be vigilant against possible falling objects., Do not work on roofs and do not touch any electrical line fallen on the ground., Store or secure sensitive objects to wind or likely to be damaged., Always install power generators outside buildings. 


Meteo18 Weather Cam more information Meteo18 Weather Cam


Thunder radar more information blitzortung!


Rain radar more information rain snow radar


Visit our other weather sites:

Template documentation
and downloads

And another site



Weather Underground History page Text

Daily Summary for April 18, 2017 Units:  English    Metric   Both
« Previous Day
Next Day »
Daily Weekly Monthly Yearly Custom
  High: Low: Average:
Temperature: 52.2 °F 36.9 °F 44.1 °F
Dew Point: 40.8 °F 30.4 °F 34.9 °F
Humidity: 88 % 46 % 72 %
Wind Speed: 16 mph 0 mph 4 mph
Wind Gust: 21 mph - -
Wind:- - SSE
Pressure: 30.4 in 30.2 in -
Precipitation: 0 in    
Historical Graphs
 
 
Tabular Data for April 18, 2017
Time Temperature Dew Point Pressure Wind Wind Speed Wind Gust Humidity Rainfall Rate (Hourly)
00:02 47.8 °F 40.6 °F 30.2 in Calm   11 mph 76 % 0 in
00:07 47.7 °F 40.8 °F 30.2 in NNE 4 mph 8 mph 77 % 0 in
00:12 47.7 °F 40.8 °F 30.2 in NE 2 mph 8 mph 77 % 0 in
00:22 47.5 °F 40.3 °F 30.2 in NNW 2 mph 8 mph 76 % 0 in
00:27 47.1 °F 40.3 °F 30.2 in NE 6 mph 9 mph 77 % 0 in
00:32 46.9 °F 40.1 °F 30.2 in East 1 mph 9 mph 77 % 0 in
00:42 46.4 °F 39.6 °F 30.2 in Calm   8 mph 77 % 0 in
00:47 45.9 °F 39.4 °F 30.2 in Calm   6 mph 78 % 0 in
00:52 45.5 °F 39.4 °F 30.2 in Calm   6 mph 79 % 0 in
00:57 45.1 °F 39 °F 30.2 in Calm   3 mph 79 % 0 in
01:02 45 °F 39.2 °F 30.2 in NE 3 mph 3 mph 80 % 0 in
01:07 45 °F 39.2 °F 30.2 in NE 3 mph 4 mph 80 % 0 in
01:12 44.4 °F 38.7 °F 30.2 in NNE 2 mph 4 mph 80 % 0 in
01:17 43.9 °F 38.5 °F 30.2 in Calm   4 mph 81 % 0 in
01:22 43.5 °F 38.5 °F 30.2 in Calm   4 mph 82 % 0 in
01:27 43.5 °F 38.7 °F 30.2 in NNW 1 mph 4 mph 83 % 0 in
01:32 43.3 °F 38.3 °F 30.2 in NNW 2 mph 3 mph 82 % 0 in
01:37 43.2 °F 38.3 °F 30.2 in Calm   3 mph 83 % 0 in
01:42 43 °F 38.1 °F 30.2 in North 1 mph 3 mph 83 % 0 in
01:52 42.4 °F 37.9 °F 30.2 in Calm   3 mph 84 % 0 in
01:57 42.4 °F 37.9 °F 30.2 in Calm   2 mph 84 % 0 in
02:02 42.3 °F 37.8 °F 30.2 in NW 1 mph 2 mph 84 % 0 in
02:07 42.3 °F 38.1 °F 30.2 in NW 1 mph 2 mph 85 % 0 in
02:12 42.1 °F 37.9 °F 30.2 in Calm   2 mph 85 % 0 in
02:17 42.1 °F 37.9 °F 30.2 in Calm   2 mph 85 % 0 in
02:22 41.9 °F 37.8 °F 30.2 in NW 1 mph 2 mph 85 % 0 in
02:27 41.7 °F 37.6 °F 30.2 in Calm   2 mph 85 % 0 in
02:32 41.7 °F 37.6 °F 30.2 in Calm   2 mph 85 % 0 in
02:37 41.5 °F 37.6 °F 30.2 in NW 1 mph 2 mph 86 % 0 in
02:42 41.5 °F 37.6 °F 30.2 in NW 1 mph 2 mph 86 % 0 in
02:47 41.5 °F 37.6 °F 30.2 in Calm   2 mph 86 % 0 in
02:52 41.7 °F 37.8 °F 30.2 in NW 1 mph 2 mph 86 % 0 in
02:57 41.7 °F 37.8 °F 30.2 in NNW 1 mph 2 mph 86 % 0 in
03:02 41.5 °F 37.6 °F 30.2 in Calm   2 mph 86 % 0 in
03:07 41.5 °F 37.6 °F 30.2 in NNW 1 mph 3 mph 86 % 0 in
03:12 41.4 °F 37.6 °F 30.2 in Calm   3 mph 86 % 0 in
03:17 41.2 °F 37.4 °F 30.2 in Calm   3 mph 86 % 0 in
03:22 41.2 °F 37.4 °F 30.2 in Calm   2 mph 86 % 0 in
03:27 41.2 °F 37.4 °F 30.2 in Calm   2 mph 86 % 0 in
03:32 41 °F 37.2 °F 30.2 in WNW 1 mph 2 mph 86 % 0 in
03:37 40.8 °F 37 °F 30.2 in Calm   2 mph 86 % 0 in
03:42 40.8 °F 37 °F 30.2 in Calm   2 mph 86 % 0 in
03:47 40.8 °F 37 °F 30.2 in NW 1 mph 1 mph 86 % 0 in
03:52 40.6 °F 36.9 °F 30.2 in NW 1 mph 1 mph 86 % 0 in
03:57 40.5 °F 36.7 °F 30.2 in Calm   1 mph 86 % 0 in
04:02 40.3 °F 36.7 °F 30.2 in NW 1 mph 1 mph 87 % 0 in
04:07 40.3 °F 36.7 °F 30.2 in Calm   2 mph 87 % 0 in
04:12 40.1 °F 36.5 °F 30.2 in Calm   2 mph 87 % 0 in
04:17 39.9 °F 36.1 °F 30.2 in West 2 mph 2 mph 86 % 0 in
04:22 39.9 °F 36.7 °F 30.2 in NW 1 mph 3 mph 88 % 0 in
04:27 40.1 °F 36.9 °F 30.2 in NW 2 mph 3 mph 88 % 0 in
04:32 40.3 °F 37 °F 30.2 in NW 2 mph 3 mph 88 % 0 in
04:37 40.5 °F 36.9 °F 30.2 in WNW 1 mph 3 mph 87 % 0 in
04:47 40.1 °F 36.5 °F 30.2 in NW 1 mph 3 mph 87 % 0 in
04:52 39.9 °F 36.7 °F 30.2 in NW 1 mph 3 mph 88 % 0 in
05:02 39.6 °F 36.3 °F 30.2 in NW 1 mph 3 mph 88 % 0 in
05:12 39.2 °F 36 °F 30.2 in NNW 2 mph 2 mph 88 % 0 in
05:17 39 °F 35.8 °F 30.3 in NNW 4 mph 4 mph 88 % 0 in
05:22 39.2 °F 36 °F 30.3 in North 2 mph 8 mph 88 % 0 in
05:27 39.2 °F 36 °F 30.3 in NNW 5 mph 8 mph 88 % 0 in
05:32 39.2 °F 36 °F 30.3 in NW 2 mph 8 mph 88 % 0 in
05:37 39.2 °F 36 °F 30.3 in NNE 3 mph 8 mph 88 % 0 in
05:42 39 °F 35.8 °F 30.3 in NW 1 mph 8 mph 88 % 0 in
05:52 38.7 °F 35.4 °F 30.3 in NNE 1 mph 6 mph 88 % 0 in
06:02 38.5 °F 34.9 °F 30.3 in ENE 1 mph 5 mph 87 % 0 in
06:07 38.3 °F 34.7 °F 30.3 in NE 1 mph 6 mph 87 % 0 in
06:12 37.9 °F 34.3 °F 30.3 in NNE 3 mph 6 mph 87 % 0 in
06:17 37.9 °F 34.3 °F 30.3 in NNE 1 mph 4 mph 87 % 0 in
06:22 37.8 °F 34 °F 30.3 in NNE 1 mph 4 mph 86 % 0 in
06:32 37.2 °F 33.4 °F 30.3 in Calm   4 mph 86 % 0 in
06:37 37.2 °F 33.4 °F 30.3 in North 2 mph 3 mph 86 % 0 in
06:42 37.2 °F 33.4 °F 30.3 in NNW 4 mph 4 mph 86 % 0 in
06:47 37.2 °F 33.1 °F 30.3 in NNW 2 mph 5 mph 85 % 0 in
06:52 37.4 °F 33.1 °F 30.3 in NNE 1 mph 5 mph 84 % 0 in
06:57 37 °F 32.7 °F 30.3 in North 4 mph 9 mph 84 % 0 in
07:02 36.9 °F 32.7 °F 30.3 in North 1 mph 9 mph 85 % 0 in
07:12 36.9 °F 32.7 °F 30.3 in Calm   7 mph 85 % 0 in
07:17 37 °F 32.7 °F 30.3 in NE 2 mph 5 mph 84 % 0 in
07:22 37.2 °F 32.9 °F 30.3 in NNE 3 mph 5 mph 84 % 0 in
07:32 37.6 °F 32.9 °F 30.3 in NE 1 mph 4 mph 83 % 0 in
07:42 37.6 °F 32.5 °F 30.3 in North 1 mph 5 mph 82 % 0 in
07:47 37.8 °F 32.7 °F 30.3 in NNE 1 mph 5 mph 82 % 0 in
07:52 38.1 °F 33.1 °F 30.3 in NNE 1 mph 5 mph 82 % 0 in
07:57 38.5 °F 33.4 °F 30.3 in Calm   3 mph 82 % 0 in
08:02 38.7 °F 33.6 °F 30.3 in North 1 mph 3 mph 82 % 0 in
08:12 39.4 °F 34 °F 30.3 in North 3 mph 8 mph 81 % 0 in
08:17 39.6 °F 34 °F 30.3 in NNE 5 mph 8 mph 80 % 0 in
08:22 39.7 °F 34.2 °F 30.3 in North 4 mph 8 mph 80 % 0 in
08:32 40.1 °F 34.2 °F 30.3 in NNE 3 mph 9 mph 79 % 0 in
08:37 40.5 °F 34.5 °F 30.3 in NNE 4 mph 11 mph 79 % 0 in
08:42 40.8 °F 34.9 °F 30.3 in NW 3 mph 11 mph 79 % 0 in
08:52 41.2 °F 33.8 °F 30.3 in NNE 4 mph 11 mph 75 % 0 in
08:57 41.5 °F 34.2 °F 30.3 in NE 3 mph 15 mph 75 % 0 in
09:07 41.9 °F 33.6 °F 30.3 in East 3 mph 13 mph 72 % 0 in
09:12 42.3 °F 33.6 °F 30.3 in North 5 mph 13 mph 71 % 0 in
09:17 42.4 °F 34 °F 30.3 in NNE 10 mph 13 mph 72 % 0 in
09:22 42.4 °F 33.4 °F 30.3 in NNE 8 mph 13 mph 70 % 0 in
09:32 42.6 °F 33.8 °F 30.3 in NNE 8 mph 13 mph 71 % 0 in
09:42 43 °F 34.2 °F 30.3 in North 3 mph 14 mph 71 % 0 in
09:52 43.2 °F 34.3 °F 30.3 in NE 3 mph 12 mph 71 % 0 in
10:02 43.5 °F 34.3 °F 30.3 in ENE 3 mph 12 mph 70 % 0 in
10:12 44.1 °F 34.5 °F 30.3 in NE 5 mph 13 mph 69 % 0 in
10:17 44.2 °F 35.1 °F 30.3 in NE 4 mph 13 mph 70 % 0 in
10:22 44.1 °F 33.4 °F 30.3 in ENE 7 mph 13 mph 66 % 0 in
10:32 45 °F 34.7 °F 30.3 in ENE 3 mph 15 mph 67 % 0 in
10:42 45.3 °F 33.8 °F 30.3 in NE 6 mph 15 mph 64 % 0 in
10:47 45.7 °F 33.8 °F 30.3 in NE 4 mph 14 mph 63 % 0 in
10:52 45.9 °F 33.6 °F 30.3 in NE 5 mph 14 mph 62 % 0 in
11:02 46 °F 32.5 °F 30.3 in NNE 16 mph 16 mph 59 % 0 in
11:12 46.6 °F 32.5 °F 30.3 in NNE 10 mph 17 mph 58 % 0 in
11:17 46.4 °F 31.6 °F 30.3 in NE 3 mph 17 mph 56 % 0 in
11:22 46.8 °F 31.8 °F 30.3 in NNE 10 mph 17 mph 56 % 0 in
11:32 47.8 °F 32 °F 30.3 in NE 12 mph 13 mph 54 % 0 in
11:37 47.7 °F 31.3 °F 30.3 in NE 8 mph 17 mph 53 % 0 in
11:42 47.8 °F 32 °F 30.3 in NNE 6 mph 17 mph 54 % 0 in
11:47 47.7 °F 31.3 °F 30.3 in North 16 mph 17 mph 53 % 0 in
11:52 47.8 °F 32.5 °F 30.3 in NE 8 mph 16 mph 55 % 0 in
11:57 48 °F 32.5 °F 30.3 in East 6 mph 16 mph 55 % 0 in
12:07 48.4 °F 33.4 °F 30.3 in NNW 5 mph 14 mph 56 % 0 in
12:12 48.6 °F 33.1 °F 30.3 in NNW 9 mph 13 mph 55 % 0 in
12:17 48.7 °F 32.4 °F 30.3 in North 4 mph 13 mph 53 % 0 in
12:22 48.6 °F 31.8 °F 30.3 in NNE 5 mph 14 mph 52 % 0 in
12:32 48.9 °F 32 °F 30.3 in NE 8 mph 16 mph 52 % 0 in
12:42 49.6 °F 33.6 °F 30.3 in NNE 5 mph 14 mph 54 % 0 in
12:47 49.6 °F 31.8 °F 30.3 in NNW 8 mph 14 mph 50 % 0 in
12:52 49.3 °F 32 °F 30.3 in NNW 11 mph 15 mph 51 % 0 in
12:57 49.8 °F 32.4 °F 30.3 in NE 6 mph 15 mph 51 % 0 in
13:02 50.2 °F 31.8 °F 30.3 in NNE 8 mph 15 mph 49 % 0 in
13:07 50.5 °F 33.1 °F 30.3 in NE 6 mph 15 mph 51 % 0 in
13:12 50.4 °F 30.9 °F 30.3 in ENE 9 mph 20 mph 47 % 0 in
13:17 50.4 °F 31.5 °F 30.3 in NE 8 mph 20 mph 48 % 0 in
13:22 50.5 °F 31.6 °F 30.3 in NE 13 mph 20 mph 48 % 0 in
13:27 50.7 °F 31.3 °F 30.3 in NE 11 mph 17 mph 47 % 0 in
13:32 50.5 °F 32 °F 30.3 in ENE 6 mph 17 mph 49 % 0 in
13:37 50.7 °F 31.8 °F 30.3 in NNW 3 mph 17 mph 48 % 0 in
13:42 51.3 °F 32.7 °F 30.3 in North 7 mph 18 mph 49 % 0 in
13:47 51.3 °F 32.2 °F 30.3 in NE 5 mph 18 mph 48 % 0 in
13:52 50.5 °F 30.6 °F 30.3 in NNE 11 mph 16 mph 46 % 0 in
13:57 50.4 °F 32 °F 30.3 in NNW 9 mph 16 mph 49 % 0 in
14:02 50.2 °F 31.3 °F 30.3 in NNW 5 mph 16 mph 48 % 0 in
14:07 50.9 °F 32.4 °F 30.3 in NW 5 mph 17 mph 49 % 0 in
14:12 50.9 °F 31.8 °F 30.3 in NW 10 mph 17 mph 48 % 0 in
14:17 50.7 °F 32.2 °F 30.3 in WNW 4 mph 19 mph 49 % 0 in
14:22 51.3 °F 32.7 °F 30.3 in NW 7 mph 19 mph 49 % 0 in
14:27 51.6 °F 32.5 °F 30.3 in North 15 mph 19 mph 48 % 0 in
14:32 51.3 °F 31.1 °F 30.3 in NW 6 mph 19 mph 46 % 0 in
14:42 50.4 °F 30.4 °F 30.3 in North 9 mph 20 mph 46 % 0 in
14:47 50.5 °F 31.6 °F 30.3 in NNE 12 mph 20 mph 48 % 0 in
14:52 50.7 °F 33.3 °F 30.3 in NE 9 mph 20 mph 51 % 0 in
14:57 50.4 °F 31.5 °F 30.3 in NNE 15 mph 18 mph 48 % 0 in
15:02 49.6 °F 31.3 °F 30.3 in NNE 5 mph 18 mph 49 % 0 in
15:07 50.2 °F 32.7 °F 30.3 in NNE 6 mph 18 mph 51 % 0 in
15:12 51.1 °F 33.1 °F 30.3 in North 6 mph 18 mph 50 % 0 in
15:17 51.3 °F 31.6 °F 30.3 in NNE 5 mph 16 mph 47 % 0 in
15:22 51.1 °F 33.6 °F 30.3 in NNW 13 mph 16 mph 51 % 0 in
15:27 50.7 °F 32.2 °F 30.3 in NNE 5 mph 13 mph 49 % 0 in
15:32 50.5 °F 33.1 °F 30.3 in North 7 mph 13 mph 51 % 0 in
15:37 50.4 °F 32.4 °F 30.3 in NNW 9 mph 14 mph 50 % 0 in
15:42 51.1 °F 33.1 °F 30.3 in NNE 14 mph 15 mph 50 % 0 in
15:47 51.3 °F 34.7 °F 30.3 in East 4 mph 18 mph 53 % 0 in
15:52 50.7 °F 34.2 °F 30.3 in NE 3 mph 18 mph 53 % 0 in
15:57 50.4 °F 33.4 °F 30.3 in ENE 6 mph 18 mph 52 % 0 in
16:02 51.3 °F 34.2 °F 30.3 in NNE 8 mph 18 mph 52 % 0 in
16:07 52.2 °F 34.5 °F 30.3 in North 16 mph 18 mph 51 % 0 in
16:12 52.2 °F 35.1 °F 30.3 in NNE 11 mph 19 mph 52 % 0 in
16:17 51.3 °F 35.2 °F 30.3 in NNE 11 mph 21 mph 54 % 0 in
16:22 50.4 °F 35.2 °F 30.3 in NNE 14 mph 21 mph 56 % 0 in
16:27 49.8 °F 34.3 °F 30.3 in NNW 11 mph 21 mph 55 % 0 in
16:37 50.4 °F 35.2 °F 30.3 in NNE 13 mph 20 mph 56 % 0 in
16:47 50.4 °F 34.3 °F 30.3 in NNW 8 mph 18 mph 54 % 0 in
16:52 50 °F 34.5 °F 30.3 in NNW 9 mph 18 mph 55 % 0 in
16:57 49.8 °F 33.4 °F 30.3 in NW 8 mph 18 mph 53 % 0 in
17:02 49.6 °F 34.5 °F 30.3 in North 9 mph 18 mph 56 % 0 in
17:12 49.6 °F 35.1 °F 30.3 in North 6 mph 20 mph 57 % 0 in
17:17 49.5 °F 35.8 °F 30.3 in NNW 8 mph 20 mph 59 % 0 in
17:22 48.9 °F 35.2 °F 30.3 in NNW 11 mph 16 mph 59 % 0 in
17:27 48.4 °F 34.3 °F 30.3 in North 9 mph 16 mph 58 % 0 in
17:32 48.7 °F 34.2 °F 30.3 in NW 7 mph 16 mph 57 % 0 in
17:37 48.9 °F 34.3 °F 30.3 in NW 5 mph 13 mph 57 % 0 in
17:42 49.1 °F 34.5 °F 30.3 in North 7 mph 14 mph 57 % 0 in
17:47 48.9 °F 34.9 °F 30.3 in NNE 13 mph 16 mph 58 % 0 in
17:52 49.3 °F 35.6 °F 30.3 in NNW 3 mph 16 mph 59 % 0 in
17:57 49.6 °F 35.4 °F 30.3 in North 8 mph 16 mph 58 % 0 in
18:02 49.8 °F 34.7 °F 30.3 in NNW 8 mph 16 mph 56 % 0 in
18:12 49.3 °F 33.8 °F 30.3 in North 10 mph 16 mph 55 % 0 in
18:17 49.1 °F 34.2 °F 30.3 in NNW 11 mph 16 mph 56 % 0 in
18:22 49.5 °F 34 °F 30.3 in NW 5 mph 16 mph 55 % 0 in
18:27 49.5 °F 32.5 °F 30.3 in NNE 7 mph 16 mph 52 % 0 in
18:32 49.5 °F 32 °F 30.3 in North 12 mph 13 mph 51 % 0 in
18:42 48.6 °F 34.9 °F 30.3 in North 8 mph 13 mph 59 % 0 in
18:52 47.1 °F 35.6 °F 30.3 in East 5 mph 20 mph 64 % 0 in
18:57 46 °F 35.8 °F 30.3 in ENE 10 mph 14 mph 67 % 0 in
19:07 45 °F 36.1 °F 30.3 in ENE 4 mph 11 mph 71 % 0 in
19:12 44.4 °F 36 °F 30.3 in NE 4 mph 10 mph 72 % 0 in
19:17 44.1 °F 36 °F 30.3 in NE 3 mph 11 mph 73 % 0 in
19:22 43.9 °F 36.1 °F 30.3 in NE 3 mph 11 mph 74 % 0 in
19:27 43.5 °F 35.8 °F 30.4 in ENE 3 mph 11 mph 74 % 0 in
19:32 43.3 °F 36 °F 30.4 in NE 5 mph 11 mph 75 % 0 in
19:37 43.2 °F 35.8 °F 30.4 in NE 4 mph 7 mph 75 % 0 in
19:42 43.2 °F 36.1 °F 30.4 in NE 3 mph 7 mph 76 % 0 in
19:47 43.2 °F 35.8 °F 30.4 in NNE 5 mph 7 mph 75 % 0 in
19:52 43 °F 36 °F 30.4 in East 1 mph 7 mph 76 % 0 in
19:57 42.8 °F 35.8 °F 30.4 in NE 1 mph 7 mph 76 % 0 in
20:02 43 °F 36.3 °F 30.4 in ENE 1 mph 7 mph 77 % 0 in
20:12 43.3 °F 36.3 °F 30.4 in Calm   3 mph 76 % 0 in
20:17 43.2 °F 36.1 °F 30.4 in Calm   2 mph 76 % 0 in
20:22 43.2 °F 36.1 °F 30.4 in Calm   2 mph 76 % 0 in
20:32 42.4 °F 35.8 °F 30.4 in Calm   2 mph 77 % 0 in
20:42 41.7 °F 35.8 °F 30.4 in Calm   1 mph 79 % 0 in
20:47 41.5 °F 35.6 °F 30.4 in Calm   1 mph 79 % 0 in
20:52 41.4 °F 35.6 °F 30.4 in Calm   1 mph 80 % 0 in
20:57 41.2 °F 35.8 °F 30.4 in Calm   2 mph 81 % 0 in
21:02 40.8 °F 35.1 °F 30.4 in Calm   2 mph 80 % 0 in
21:07 40.5 °F 35.1 °F 30.4 in Calm   2 mph 81 % 0 in
21:12 40.3 °F 35.2 °F 30.4 in Calm   1 mph 82 % 0 in
21:17 40.5 °F 35.4 °F 30.4 in Calm   1 mph 82 % 0 in
21:22 40.3 °F 34.9 °F 30.4 in Calm   1 mph 81 % 0 in
21:27 40.3 °F 35.2 °F 30.4 in Calm   1 mph 82 % 0 in
21:32 40.3 °F 35.2 °F 30.4 in Calm   1 mph 82 % 0 in
21:37 39.9 °F 34.9 °F 30.4 in Calm   2 mph 82 % 0 in
21:42 39.9 °F 34.9 °F 30.4 in NW 1 mph 2 mph 82 % 0 in
21:47 39.7 °F 34.7 °F 30.4 in NW 1 mph 2 mph 82 % 0 in
21:52 39.7 °F 34.7 °F 30.4 in Calm   2 mph 82 % 0 in
22:02 39 °F 34.3 °F 30.4 in Calm   3 mph 83 % 0 in
22:12 38.5 °F 34.2 °F 30.4 in Calm   2 mph 84 % 0 in
22:17 38.5 °F 34.2 °F 30.4 in NNE 1 mph 3 mph 84 % 0 in
22:22 38.3 °F 34 °F 30.4 in North 1 mph 4 mph 84 % 0 in
22:27 38.1 °F 33.8 °F 30.4 in NNE 1 mph 4 mph 84 % 0 in
22:32 37.9 °F 33.8 °F 30.4 in Calm   4 mph 85 % 0 in
22:37 38.1 °F 34 °F 30.4 in Calm   4 mph 85 % 0 in
22:42 38.3 °F 34.2 °F 30.4 in Calm   5 mph 85 % 0 in
22:47 38.5 °F 34.3 °F 30.4 in Calm   5 mph 85 % 0 in
22:52 38.5 °F 34.2 °F 30.4 in NNE 2 mph 3 mph 84 % 0 in
22:57 38.5 °F 34.2 °F 30.4 in Calm   3 mph 84 % 0 in
23:07 38.1 °F 33.8 °F 30.4 in NNE 1 mph 2 mph 84 % 0 in
23:12 38.1 °F 34 °F 30.4 in NNE 1 mph 3 mph 85 % 0 in
23:17 38.1 °F 34 °F 30.4 in Calm   3 mph 85 % 0 in
23:22 38.3 °F 34.2 °F 30.4 in Calm   3 mph 85 % 0 in
23:32 38.3 °F 34 °F 30.4 in NNE 3 mph 4 mph 84 % 0 in
23:37 38.7 °F 34.2 °F 30.4 in NE 1 mph 5 mph 84 % 0 in
23:42 39 °F 34.5 °F 30.4 in Calm   6 mph 84 % 0 in
23:47 39.4 °F 34.7 °F 30.4 in North 4 mph 6 mph 83 % 0 in
23:52 39.2 °F 34.5 °F 30.4 in NNE 4 mph 7 mph 83 % 0 in
23:57 39.2 °F 34.5 °F 30.4 in NNE 4 mph 7 mph 83 % 0 in
Meteo18
Compliments of Weather Underground - 4 mb

Script developed by  Jim McMurry - jmcmurry@mwt.net Adapted for the template by  Wim van der Kuil - Leuven-Template.eu

You find our weather info also at:

European Weather Network

Weather Underground

Equipment we use:

Weather-station
Davis Vue

Weather-program
Meteohub

Weather-server
Raspberry PI 2 B+

Provider
1 and 1

Davis Vue

Meteohub

Raspberry PI 2 B+

1 and 1